Time;durP1;ratioP1;P1;durP2;ratioP2;P2;SDS_P1;SDS_P2;PMS_P1;PMS_P2;Temp;Humidity;BMP_temperature;BMP_pressure;BME280_temperature;BME280_humidity;BME280_pressure;Samples;Min_cycle;Max_cycle;Signal;HPM_P1;HPM_P2
2024/02/18 00:02:25;;;;;;;25.73;21.13;;;8.40;99.90;;;;;;5054915;28;20454;-66
2024/02/18 00:04:52;;;;;;;33.10;23.47;;;8.40;99.90;;;;;;5055150;28;20900;-67
2024/02/18 00:07:22;;;;;;;27.70;21.70;;;8.30;99.90;;;;;;5055246;28;20481;-66
2024/02/18 00:09:51;;;;;;;30.90;21.50;;;8.30;99.90;;;;;;5055057;27;20477;-66
2024/02/18 00:12:22;;;;;;;30.40;21.77;;;8.30;99.90;;;;;;5054389;28;20499;-67
2024/02/18 00:14:50;;;;;;;30.60;23.63;;;8.30;99.90;;;;;;5053162;28;20494;-67
2024/02/18 00:17:17;;;;;;;27.73;19.50;;;8.20;99.90;;;;;;5054541;28;20462;-66
2024/02/18 00:19:44;;;;;;;28.57;20.50;;;8.30;99.90;;;;;;5054946;28;20945;-67
2024/02/18 00:22:13;;;;;;;32.23;22.67;;;8.40;99.90;;;;;;5054853;28;20879;-67
2024/02/18 00:24:40;;;;;;;29.90;20.63;;;8.40;99.90;;;;;;5053307;28;20454;-67
2024/02/18 00:27:09;;;;;;;33.50;22.33;;;8.40;99.90;;;;;;5051512;28;20454;-67
2024/02/18 00:29:38;;;;;;;27.07;21.30;;;8.40;99.90;;;;;;5052194;28;20477;-66
2024/02/18 00:32:06;;;;;;;27.90;22.07;;;8.40;99.90;;;;;;5052574;28;20477;-68
2024/02/18 00:34:34;;;;;;;31.17;22.67;;;8.50;99.90;;;;;;5052373;28;20432;-67
2024/02/18 00:37:01;;;;;;;28.87;22.20;;;8.50;99.90;;;;;;5052274;28;20646;-67
2024/02/18 00:39:29;;;;;;;30.70;20.57;;;8.50;99.90;;;;;;5053229;28;20811;-67
2024/02/18 00:41:56;;;;;;;37.40;21.40;;;8.40;99.90;;;;;;5053888;28;20752;-66
2024/02/18 00:44:24;;;;;;;32.43;21.63;;;8.50;99.90;;;;;;5053718;28;20455;-67
2024/02/18 00:46:53;;;;;;;26.90;19.00;;;8.50;99.90;;;;;;5053514;28;20454;-67
2024/02/18 00:49:21;;;;;;;24.40;20.40;;;8.50;99.90;;;;;;5053372;28;20458;-67
2024/02/18 00:51:48;;;;;;;30.20;20.17;;;8.50;99.90;;;;;;5053827;28;20462;-67
2024/02/18 00:54:15;;;;;;;26.17;20.00;;;8.50;99.90;;;;;;5052051;28;20936;-66
2024/02/18 00:56:43;;;;;;;28.10;19.83;;;8.50;99.90;;;;;;5053399;28;20580;-67
2024/02/18 00:59:10;;;;;;;28.93;18.53;;;8.50;99.90;;;;;;5053435;28;20458;-67
2024/02/18 01:01:37;;;;;;;31.90;21.03;;;8.50;99.90;;;;;;5053793;28;20458;-65
2024/02/18 01:04:06;;;;;;;27.10;20.50;;;8.50;99.90;;;;;;5053585;28;20491;-67
2024/02/18 01:06:33;;;;;;;32.13;20.30;;;8.60;99.90;;;;;;5053260;28;20454;-64
2024/02/18 01:09:01;;;;;;;21.37;18.57;;;8.60;99.90;;;;;;5053224;28;20461;-67
2024/02/18 01:11:28;;;;;;;26.50;18.73;;;8.60;99.90;;;;;;5053217;28;20441;-67
2024/02/18 01:13:55;;;;;;;26.43;19.57;;;8.60;99.90;;;;;;5047973;28;20524;-64
2024/02/18 01:16:23;;;;;;;26.40;19.67;;;8.50;99.90;;;;;;5033424;28;20591;-64
2024/02/18 01:18:50;;;;;;;24.00;17.87;;;8.50;99.90;;;;;;5031762;28;20469;-66
2024/02/18 01:21:19;;;;;;;23.00;18.30;;;8.40;99.90;;;;;;5033212;28;20463;-67
2024/02/18 01:23:47;;;;;;;22.00;17.47;;;8.40;99.90;;;;;;5033511;28;20463;-68
2024/02/18 01:26:14;;;;;;;23.63;17.90;;;8.40;99.90;;;;;;5033307;28;20463;-67
2024/02/18 01:28:42;;;;;;;23.20;17.57;;;8.30;99.90;;;;;;5033388;28;20954;-67
2024/02/18 01:31:09;;;;;;;29.30;18.00;;;8.30;99.90;;;;;;5032280;28;20483;-66
2024/02/18 01:33:37;;;;;;;29.00;17.60;;;8.30;99.90;;;;;;5033645;28;20880;-66
2024/02/18 01:36:05;;;;;;;23.90;18.27;;;8.40;99.90;;;;;;5032580;28;20487;-66
2024/02/18 01:38:34;;;;;;;24.63;18.00;;;8.40;99.90;;;;;;5033066;28;20940;-66
2024/02/18 01:41:01;;;;;;;29.07;18.63;;;8.40;99.90;;;;;;5032868;28;20490;-66
2024/02/18 01:43:29;;;;;;;23.77;18.23;;;8.40;99.90;;;;;;5033020;28;20518;-66
2024/02/18 01:45:56;;;;;;;30.07;19.50;;;8.40;99.90;;;;;;5032719;28;20549;-66
2024/02/18 01:48:25;;;;;;;26.90;18.13;;;8.40;99.90;;;;;;5033402;28;20487;-66
2024/02/18 01:50:53;;;;;;;27.40;18.63;;;8.40;99.90;;;;;;5032787;28;20501;-66
2024/02/18 01:53:21;;;;;;;25.47;17.67;;;8.30;99.90;;;;;;5032676;28;20490;-67
2024/02/18 01:55:50;;;;;;;22.53;17.23;;;8.30;99.90;;;;;;5032847;28;20470;-67
2024/02/18 01:58:19;;;;;;;27.33;19.10;;;8.30;99.90;;;;;;5032998;28;20545;-66
2024/02/18 02:00:46;;;;;;;21.37;17.30;;;8.30;99.90;;;;;;5032946;28;20880;-67
2024/02/18 02:03:14;;;;;;;21.40;17.60;;;8.20;99.90;;;;;;5032466;28;20563;-66
2024/02/18 02:05:42;;;;;;;22.00;17.63;;;8.30;99.90;;;;;;5033870;28;20463;-67
2024/02/18 02:08:09;;;;;;;22.13;16.90;;;8.30;99.90;;;;;;5036162;28;20557;-67
2024/02/18 02:10:38;;;;;;;26.40;17.70;;;8.20;99.90;;;;;;5035783;28;20727;-67
2024/02/18 02:13:06;;;;;;;22.07;19.37;;;8.30;99.90;;;;;;5035786;28;20463;-67
2024/02/18 02:15:34;;;;;;;20.90;15.90;;;8.30;99.90;;;;;;5036227;28;20587;-67
2024/02/18 02:18:01;;;;;;;21.20;15.23;;;8.30;99.90;;;;;;5036888;28;20512;-65
2024/02/18 02:20:29;;;;;;;21.23;15.97;;;8.20;99.90;;;;;;5036790;28;20872;-66
2024/02/18 02:22:56;;;;;;;21.57;15.87;;;8.20;99.90;;;;;;5036352;28;20505;-67
2024/02/18 02:25:23;;;;;;;18.83;15.50;;;8.10;99.90;;;;;;5036500;28;20770;-67
2024/02/18 02:28:03;;;;;;;18.57;15.27;;;8.10;99.90;;;;;;5036762;28;20507;-66
2024/02/18 02:30:32;;;;;;;21.33;15.53;;;8.20;99.90;;;;;;5036396;28;20795;-66
2024/02/18 02:32:59;;;;;;;17.40;15.00;;;8.20;99.90;;;;;;5036412;28;20541;-67
2024/02/18 02:35:28;;;;;;;18.87;13.80;;;8.10;99.90;;;;;;5036546;28;20501;-67
2024/02/18 02:37:58;;;;;;;18.53;12.73;;;8.00;99.90;;;;;;5036581;28;20760;-67
2024/02/18 02:40:25;;;;;;;20.47;13.07;;;8.00;99.90;;;;;;5036637;28;20456;-66
2024/02/18 02:42:53;;;;;;;18.97;13.80;;;8.10;99.90;;;;;;5036363;28;20470;-66
2024/02/18 02:45:20;;;;;;;21.30;14.90;;;8.10;99.90;;;;;;5036258;28;20505;-66
2024/02/18 02:47:51;;;;;;;20.50;13.00;;;8.10;99.90;;;;;;5036418;28;20463;-66
2024/02/18 02:50:18;;;;;;;20.73;13.50;;;8.10;99.90;;;;;;5036427;28;20464;-67
2024/02/18 02:52:46;;;;;;;22.60;14.33;;;8.10;99.90;;;;;;5036372;28;20936;-66
2024/02/18 02:55:13;;;;;;;15.90;12.50;;;8.20;99.90;;;;;;5036125;28;20497;-66
2024/02/18 02:57:40;;;;;;;20.57;12.70;;;8.10;99.90;;;;;;5035391;28;20467;-66
2024/02/18 03:00:10;;;;;;;17.67;13.17;;;8.20;99.90;;;;;;5036404;28;20561;-66
2024/02/18 03:02:38;;;;;;;18.53;14.70;;;8.10;99.90;;;;;;5035928;28;20459;-66
2024/02/18 03:05:09;;;;;;;16.47;13.63;;;8.10;99.90;;;;;;5036159;28;20509;-65
2024/02/18 03:07:37;;;;;;;20.83;14.17;;;8.20;99.90;;;;;;5036350;28;20463;-67
2024/02/18 03:10:05;;;;;;;22.47;14.60;;;8.10;99.90;;;;;;5036386;28;20438;-66
2024/02/18 03:12:32;;;;;;;22.97;14.83;;;8.10;99.90;;;;;;5035918;28;20434;-67
2024/02/18 03:15:00;;;;;;;20.20;14.47;;;8.10;99.90;;;;;;5035790;28;20459;-66
2024/02/18 03:17:27;;;;;;;17.50;14.57;;;8.10;99.90;;;;;;5034580;28;20585;-67
2024/02/18 03:19:54;;;;;;;23.27;15.17;;;8.10;99.90;;;;;;5036187;28;20459;-66
2024/02/18 03:22:24;;;;;;;18.30;14.73;;;8.00;99.90;;;;;;5036137;28;20495;-66
2024/02/18 03:24:51;;;;;;;26.57;15.50;;;8.00;99.90;;;;;;5035603;28;20481;-66
2024/02/18 03:27:19;;;;;;;17.37;14.20;;;8.00;99.90;;;;;;5035678;28;20508;-66
2024/02/18 03:29:46;;;;;;;20.23;15.10;;;8.10;99.90;;;;;;5036140;28;20463;-67
2024/02/18 03:32:14;;;;;;;18.50;15.10;;;8.10;99.90;;;;;;5035781;28;20434;-67
2024/02/18 03:34:43;;;;;;;20.10;14.27;;;8.10;99.90;;;;;;5034988;28;20558;-67
2024/02/18 03:37:10;;;;;;;19.07;14.07;;;8.00;99.90;;;;;;5035648;28;20503;-67
2024/02/18 03:39:39;;;;;;;17.47;14.20;;;8.00;99.90;;;;;;5035436;28;20438;-67
2024/02/18 03:42:06;;;;;;;18.20;14.07;;;8.10;99.90;;;;;;5035797;28;20470;-67
2024/02/18 03:44:34;;;;;;;17.70;14.73;;;8.00;99.90;;;;;;5035264;28;20519;-67
2024/02/18 03:47:02;;;;;;;21.73;14.53;;;8.00;99.90;;;;;;5035147;28;20471;-66
2024/02/18 03:49:29;;;;;;;20.67;15.33;;;8.00;99.90;;;;;;5035189;28;20459;-66
2024/02/18 03:51:56;;;;;;;20.40;14.63;;;8.00;99.90;;;;;;5035384;28;20478;-66
2024/02/18 03:54:23;;;;;;;19.50;14.73;;;8.00;99.90;;;;;;5034717;28;20578;-67
2024/02/18 03:56:52;;;;;;;18.97;15.77;;;8.00;99.90;;;;;;5035090;28;20928;-67
2024/02/18 03:59:19;;;;;;;18.07;15.93;;;8.00;99.90;;;;;;5034836;28;20463;-67
2024/02/18 04:01:47;;;;;;;21.83;15.60;;;8.00;99.90;;;;;;5046123;27;20515;-66
2024/02/18 04:04:14;;;;;;;21.23;14.70;;;8.00;99.90;;;;;;5055575;28;20919;-66
2024/02/18 04:06:41;;;;;;;20.20;14.20;;;7.90;99.90;;;;;;5054868;28;20746;-67
2024/02/18 04:09:11;;;;;;;20.40;15.10;;;8.00;99.90;;;;;;5055053;27;20462;-67
2024/02/18 04:11:38;;;;;;;16.50;13.80;;;8.00;99.90;;;;;;5054945;28;20466;-66
2024/02/18 04:14:07;;;;;;;17.33;14.13;;;8.00;99.90;;;;;;5055248;27;20458;-66
2024/02/18 04:16:34;;;;;;;18.73;14.63;;;8.00;99.90;;;;;;5054905;28;20580;-66
2024/02/18 04:19:01;;;;;;;21.20;14.57;;;8.00;99.90;;;;;;5054951;27;20462;-66
2024/02/18 04:21:28;;;;;;;17.03;13.60;;;7.90;99.90;;;;;;5054908;27;20463;-66
2024/02/18 04:23:56;;;;;;;17.30;14.60;;;8.00;99.90;;;;;;5054964;27;20504;-66
2024/02/18 04:26:23;;;;;;;22.23;13.73;;;8.00;99.90;;;;;;5054608;27;20454;-67
2024/02/18 04:28:51;;;;;;;18.70;13.73;;;7.90;99.90;;;;;;5054325;28;20514;-66
2024/02/18 04:31:20;;;;;;;16.27;12.70;;;7.90;99.90;;;;;;5054589;28;20555;-66
2024/02/18 04:33:47;;;;;;;18.53;13.37;;;8.00;99.90;;;;;;5054953;28;20463;-66
2024/02/18 04:36:15;;;;;;;16.90;13.40;;;8.00;99.90;;;;;;5054456;28;20522;-67
2024/02/18 04:38:42;;;;;;;15.00;10.70;;;8.00;99.90;;;;;;5054841;27;20480;-67
2024/02/18 04:41:09;;;;;;;15.53;12.07;;;8.00;99.90;;;;;;5054196;28;20494;-66
2024/02/18 04:43:36;;;;;;;14.70;10.60;;;8.10;99.90;;;;;;5054821;28;20458;-67
2024/02/18 04:46:04;;;;;;;15.07;11.70;;;8.10;99.90;;;;;;5054612;27;20895;-67
2024/02/18 04:48:33;;;;;;;14.47;11.13;;;8.10;99.90;;;;;;5054180;28;20875;-66
2024/02/18 04:51:00;;;;;;;14.70;10.17;;;8.20;99.90;;;;;;5054053;28;20458;-67
2024/02/18 04:53:27;;;;;;;13.93;9.57;;;8.10;99.90;;;;;;5054130;27;20490;-67
2024/02/18 04:55:54;;;;;;;14.60;10.23;;;8.10;99.90;;;;;;5054316;28;20497;-66
2024/02/18 04:58:23;;;;;;;11.83;10.10;;;8.10;99.90;;;;;;5054855;28;20553;-66
2024/02/18 05:00:50;;;;;;;11.30;9.53;;;8.20;99.90;;;;;;5054436;27;20926;-67
2024/02/18 05:03:17;;;;;;;14.03;9.60;;;8.20;99.90;;;;;;5054108;28;20473;-66
2024/02/18 05:05:46;;;;;;;11.40;10.00;;;8.30;99.90;;;;;;5054354;28;20498;-67
2024/02/18 05:08:14;;;;;;;15.13;10.03;;;8.20;99.90;;;;;;5054501;28;20460;-67
2024/02/18 05:10:41;;;;;;;16.53;9.20;;;8.20;99.90;;;;;;5053913;28;20501;-67
2024/02/18 05:13:08;;;;;;;16.33;10.80;;;8.20;99.90;;;;;;5054327;27;20462;-67
2024/02/18 05:15:35;;;;;;;14.60;11.53;;;8.20;99.90;;;;;;5053929;28;20515;-67
2024/02/18 05:18:03;;;;;;;13.40;9.57;;;8.20;99.90;;;;;;5054199;28;20532;-67
2024/02/18 05:20:30;;;;;;;10.30;8.80;;;8.10;99.90;;;;;;5053723;28;20561;-67
2024/02/18 05:22:59;;;;;;;10.83;8.73;;;8.10;99.90;;;;;;5053798;28;20511;-67
2024/02/18 05:25:26;;;;;;;11.13;8.53;;;8.00;99.90;;;;;;5054095;28;20919;-69
2024/02/18 05:27:53;;;;;;;10.30;7.93;;;7.90;99.90;;;;;;5053952;27;20544;-67
2024/02/18 05:30:21;;;;;;;9.47;7.90;;;7.90;99.90;;;;;;5054241;27;20462;-68
2024/02/18 05:32:48;;;;;;;11.20;8.07;;;7.90;99.90;;;;;;5053674;27;20536;-67
2024/02/18 05:35:15;;;;;;;9.67;7.10;;;7.90;99.90;;;;;;5053590;27;20534;-67
2024/02/18 05:37:43;;;;;;;15.80;8.70;;;7.90;99.90;;;;;;5053711;28;20592;-67
2024/02/18 05:40:12;;;;;;;11.33;8.03;;;7.90;99.90;;;;;;5053957;28;20750;-67
2024/02/18 05:42:39;;;;;;;10.30;9.13;;;7.90;99.90;;;;;;5057057;27;20464;-67
2024/02/18 05:45:08;;;;;;;11.57;8.70;;;7.90;99.90;;;;;;5057491;28;20498;-68
2024/02/18 05:47:35;;;;;;;11.13;8.43;;;7.80;99.90;;;;;;5057377;27;20469;-67
2024/02/18 05:50:02;;;;;;;13.07;8.40;;;7.80;99.90;;;;;;5057210;28;20493;-67
2024/02/18 05:52:30;;;;;;;11.10;7.90;;;7.80;99.90;;;;;;5057026;28;20508;-67
2024/02/18 05:54:57;;;;;;;10.37;7.73;;;7.80;99.90;;;;;;5056304;28;20553;-67
2024/02/18 05:57:27;;;;;;;10.30;6.87;;;7.80;99.90;;;;;;5056077;28;20655;-68
2024/02/18 05:59:55;;;;;;;13.83;8.40;;;7.80;99.90;;;;;;5057506;28;20465;-67
2024/02/18 06:02:22;;;;;;;14.30;8.07;;;7.80;99.90;;;;;;5057001;28;20483;-67
2024/02/18 06:04:49;;;;;;;10.63;7.20;;;7.80;99.90;;;;;;5056672;28;20561;-68
2024/02/18 06:07:17;;;;;;;12.43;7.43;;;7.80;99.90;;;;;;5056611;28;20495;-67
2024/02/18 06:09:45;;;;;;;10.30;8.03;;;7.90;99.90;;;;;;5056720;28;20465;-67
2024/02/18 06:12:14;;;;;;;11.70;9.10;;;7.90;99.90;;;;;;5056900;28;20757;-67
2024/02/18 06:14:42;;;;;;;12.83;8.10;;;7.90;99.90;;;;;;5056535;28;20477;-67
2024/02/18 06:17:10;;;;;;;12.77;8.30;;;7.90;99.90;;;;;;5056483;28;20486;-67
2024/02/18 06:19:41;;;;;;;10.07;7.97;;;7.90;99.90;;;;;;5056689;28;20805;-67
2024/02/18 06:22:08;;;;;;;10.63;7.27;;;7.90;99.90;;;;;;5056483;28;20911;-70
2024/02/18 06:24:37;;;;;;;11.77;8.30;;;7.90;99.90;;;;;;5056408;28;20458;-70
2024/02/18 06:27:05;;;;;;;9.77;6.63;;;7.90;99.90;;;;;;5056310;28;20508;-70
2024/02/18 06:29:32;;;;;;;10.17;7.63;;;7.90;99.90;;;;;;5056815;28;20884;-70
2024/02/18 06:32:01;;;;;;;9.33;6.67;;;7.80;99.90;;;;;;5057047;28;20809;-69
2024/02/18 06:34:28;;;;;;;9.40;6.97;;;7.90;99.90;;;;;;5056072;28;20481;-70
2024/02/18 06:36:55;;;;;;;8.87;6.30;;;7.90;99.90;;;;;;5056138;28;20486;-69
2024/02/18 06:39:23;;;;;;;7.87;6.87;;;7.90;99.90;;;;;;5056146;28;20463;-69
2024/02/18 06:41:53;;;;;;;10.27;6.97;;;7.90;99.90;;;;;;5056083;28;20475;-69
2024/02/18 06:44:21;;;;;;;10.77;6.80;;;7.90;99.90;;;;;;5056896;28;20943;-69
2024/02/18 06:46:50;;;;;;;11.30;6.00;;;7.90;99.90;;;;;;5055946;28;20456;-68
2024/02/18 06:49:19;;;;;;;9.57;6.43;;;7.90;99.90;;;;;;5056312;28;20539;-68
2024/02/18 06:51:46;;;;;;;13.33;7.17;;;7.90;99.90;;;;;;5055663;28;20556;-68
2024/02/18 06:54:13;;;;;;;9.60;6.90;;;7.90;99.90;;;;;;5055610;28;20494;-69
2024/02/18 06:56:41;;;;;;;9.27;6.20;;;7.80;99.90;;;;;;5056320;28;20462;-68
2024/02/18 06:59:08;;;;;;;9.70;6.67;;;7.90;99.90;;;;;;5056085;28;20498;-68
2024/02/18 07:01:35;;;;;;;12.27;7.73;;;7.90;99.90;;;;;;5056443;28;20490;-68
2024/02/18 07:04:02;;;;;;;14.30;9.27;;;7.90;99.90;;;;;;5056121;28;20462;-68
2024/02/18 07:06:32;;;;;;;13.27;10.70;;;7.90;99.90;;;;;;5054238;28;20497;-68
2024/02/18 07:08:59;;;;;;;15.50;9.87;;;7.90;99.90;;;;;;5055695;28;20462;-68
2024/02/18 07:11:27;;;;;;;21.50;12.13;;;7.90;99.90;;;;;;5055562;28;20458;-69
2024/02/18 07:13:54;;;;;;;22.90;14.33;;;7.90;99.90;;;;;;5055142;28;20462;-68
2024/02/18 07:16:22;;;;;;;10.70;7.57;;;7.90;99.90;;;;;;5056056;28;20893;-68
2024/02/18 07:18:49;;;;;;;15.23;10.87;;;7.90;99.90;;;;;;5056030;28;20546;-69
2024/02/18 07:21:16;;;;;;;15.93;9.77;;;8.00;99.90;;;;;;5054427;28;20844;-68
2024/02/18 07:23:46;;;;;;;12.83;7.87;;;7.90;99.90;;;;;;5053943;28;20463;-68
2024/02/18 07:26:15;;;;;;;13.83;9.33;;;7.90;99.90;;;;;;5055010;28;20573;-68
2024/02/18 07:28:42;;;;;;;12.73;9.23;;;8.00;99.90;;;;;;5053130;28;20532;-68
2024/02/18 07:31:10;;;;;;;11.77;6.97;;;8.00;99.90;;;;;;5052453;28;20462;-67
2024/02/18 07:33:37;;;;;;;11.20;6.10;;;8.00;99.90;;;;;;5053420;28;20458;-68
2024/02/18 07:36:04;;;;;;;14.77;7.23;;;8.00;99.90;;;;;;5052885;28;20881;-68
2024/02/18 07:38:32;;;;;;;13.07;10.73;;;8.10;99.90;;;;;;5052110;28;20828;-68
2024/02/18 07:41:00;;;;;;;10.70;9.17;;;8.00;99.90;;;;;;5052670;28;20455;-67
2024/02/18 07:43:28;;;;;;;8.97;7.97;;;8.00;99.90;;;;;;5053712;28;20507;-68
2024/02/18 07:45:55;;;;;;;10.53;6.37;;;8.00;99.90;;;;;;5055672;28;20493;-68
2024/02/18 07:48:22;;;;;;;9.40;6.07;;;8.00;99.90;;;;;;5055462;28;20527;-69
2024/02/18 07:50:49;;;;;;;13.17;6.47;;;8.00;99.90;;;;;;5055417;28;20458;-70
2024/02/18 07:53:17;;;;;;;7.10;6.03;;;8.00;99.90;;;;;;5054869;28;20487;-72
2024/02/18 07:55:44;;;;;;;10.50;6.57;;;8.00;99.90;;;;;;5055273;28;20788;-73
2024/02/18 07:58:15;;;;;;;10.07;5.53;;;8.00;99.90;;;;;;5057251;28;20580;-71
2024/02/18 08:00:43;;;;;;;10.10;7.17;;;8.00;99.90;;;;;;5059616;28;20507;-69
2024/02/18 08:03:10;;;;;;;9.53;6.43;;;7.90;99.90;;;;;;5054531;28;20463;-68
2024/02/18 08:05:37;;;;;;;6.73;5.27;;;8.00;99.90;;;;;;5055087;28;20545;-68
2024/02/18 08:08:05;;;;;;;9.47;6.70;;;7.90;99.90;;;;;;5055156;28;20561;-67
2024/02/18 08:10:32;;;;;;;10.10;7.20;;;7.90;99.90;;;;;;5054730;28;20530;-67
2024/02/18 08:13:00;;;;;;;14.67;7.07;;;7.90;99.90;;;;;;5054915;28;20918;-68
2024/02/18 08:15:28;;;;;;;12.23;5.90;;;7.90;99.90;;;;;;5054961;28;20462;-69
2024/02/18 08:17:56;;;;;;;8.63;6.20;;;7.90;99.90;;;;;;5055087;28;20757;-68
2024/02/18 08:20:25;;;;;;;9.97;6.20;;;7.90;99.90;;;;;;5055237;28;20497;-69
2024/02/18 08:22:53;;;;;;;10.37;6.20;;;7.90;99.90;;;;;;5054610;28;20555;-69
2024/02/18 08:25:20;;;;;;;11.70;5.70;;;7.90;99.90;;;;;;5054915;28;20887;-69
2024/02/18 08:27:47;;;;;;;11.77;6.30;;;7.90;99.90;;;;;;5054746;28;20511;-69
2024/02/18 08:30:15;;;;;;;7.37;5.33;;;7.90;99.90;;;;;;5054686;28;20467;-69
2024/02/18 08:32:45;;;;;;;7.33;5.47;;;7.90;99.90;;;;;;5054415;28;20462;-69
2024/02/18 08:35:12;;;;;;;8.13;5.97;;;7.90;99.90;;;;;;5054601;28;20462;-70
2024/02/18 08:37:40;;;;;;;9.77;6.30;;;7.90;99.90;;;;;;5055022;28;20939;-70
2024/02/18 08:40:10;;;;;;;7.70;6.77;;;8.00;99.90;;;;;;5055193;28;20498;-67
2024/02/18 08:42:38;;;;;;;12.20;8.23;;;7.90;99.90;;;;;;5054805;28;20565;-70
2024/02/18 08:45:05;;;;;;;12.90;9.43;;;8.00;99.90;;;;;;5054212;28;20507;-71
2024/02/18 08:47:33;;;;;;;13.40;9.17;;;8.00;99.90;;;;;;5054629;28;20510;-70
2024/02/18 08:50:02;;;;;;;11.83;8.33;;;8.00;99.90;;;;;;5054795;28;20433;-72
2024/02/18 08:52:29;;;;;;;23.93;11.77;;;8.00;99.90;;;;;;5054938;28;20457;-72
2024/02/18 08:54:57;;;;;;;17.93;9.70;;;8.00;99.90;;;;;;5057352;28;20464;-72
2024/02/18 08:57:24;;;;;;;12.33;6.90;;;8.00;99.90;;;;;;5056401;28;20530;-72
2024/02/18 08:59:51;;;;;;;9.47;6.00;;;8.00;99.90;;;;;;5061931;28;20463;-72
2024/02/18 09:02:19;;;;;;;9.93;7.03;;;8.00;99.90;;;;;;5061109;28;20459;-72
2024/02/18 09:04:47;;;;;;;8.97;6.00;;;8.10;99.90;;;;;;5062484;28;20466;-71
2024/02/18 09:07:17;;;;;;;8.63;5.50;;;8.10;99.90;;;;;;5067032;28;20465;-71
2024/02/18 09:09:44;;;;;;;10.50;5.83;;;8.10;99.90;;;;;;5066160;28;20537;-71
2024/02/18 09:12:11;;;;;;;9.20;5.60;;;8.10;99.90;;;;;;5068056;28;20458;-71
2024/02/18 09:14:39;;;;;;;9.10;5.47;;;8.10;99.90;;;;;;5064374;28;20469;-72
2024/02/18 09:17:06;;;;;;;9.50;6.10;;;8.10;99.90;;;;;;5060725;28;20714;-72
2024/02/18 09:19:33;;;;;;;10.90;5.13;;;8.20;1.00;;;;;;5060929;28;20485;-70
2024/02/18 09:22:01;;;;;;;7.27;5.17;;;8.20;99.90;;;;;;5060662;28;20775;-68
2024/02/18 09:24:30;;;;;;;10.83;4.70;;;8.20;1.00;;;;;;5059139;28;20486;-70
2024/02/18 09:26:57;;;;;;;6.20;4.97;;;8.20;1.00;;;;;;5058987;28;20458;-70
2024/02/18 09:29:27;;;;;;;8.60;5.50;;;8.20;1.00;;;;;;5057783;28;20455;-70
2024/02/18 09:31:54;;;;;;;9.17;5.60;;;8.30;1.00;;;;;;5057318;28;20469;-71
2024/02/18 09:34:22;;;;;;;6.57;4.80;;;8.30;99.90;;;;;;5058412;28;20463;-71
2024/02/18 09:36:49;;;;;;;5.53;4.30;;;8.40;99.90;;;;;;5057352;28;20441;-70
2024/02/18 09:39:17;;;;;;;7.03;5.20;;;8.40;99.90;;;;;;5057835;28;20550;-70
2024/02/18 09:41:47;;;;;;;6.77;5.00;;;8.40;1.00;;;;;;5057382;28;20458;-69
2024/02/18 09:44:17;;;;;;;8.33;5.13;;;8.30;1.00;;;;;;5058116;28;20898;-69
2024/02/18 09:46:46;;;;;;;6.77;4.47;;;8.30;99.90;;;;;;5057911;28;20466;-69
2024/02/18 09:49:15;;;;;;;10.80;5.07;;;8.30;75.90;;;;;;5058335;28;20501;-69
2024/02/18 09:51:43;;;;;;;6.43;5.00;;;8.30;14.60;;;;;;5058068;28;20875;-68
2024/02/18 09:54:12;;;;;;;7.37;4.23;;;8.30;12.30;;;;;;5056923;28;20554;-69
2024/02/18 09:56:39;;;;;;;6.60;4.20;;;8.30;6.40;;;;;;5057802;28;20515;-68
2024/02/18 09:59:09;;;;;;;7.43;4.20;;;8.40;16.40;;;;;;5058142;28;20500;-69
2024/02/18 10:01:38;;;;;;;6.03;4.47;;;8.30;1.00;;;;;;5058227;28;20458;-68
2024/02/18 10:04:05;;;;;;;5.67;4.80;;;8.30;1.00;;;;;;5058013;28;20566;-68
2024/02/18 10:06:33;;;;;;;7.67;4.57;;;8.30;3.80;;;;;;5058937;28;20854;-68
2024/02/18 10:09:02;;;;;;;9.10;4.90;;;8.30;1.00;;;;;;5057999;28;20455;-69
2024/02/18 10:11:32;;;;;;;6.33;4.47;;;8.30;1.00;;;;;;5059262;28;20459;-67
2024/02/18 10:13:59;;;;;;;6.50;4.57;;;8.40;1.00;;;;;;5058919;28;20462;-68
2024/02/18 10:16:28;;;;;;;5.93;4.07;;;8.40;1.00;;;;;;5057971;28;20875;-68
2024/02/18 10:18:56;;;;;;;5.63;4.40;;;8.40;1.00;;;;;;5058250;28;20496;-68
2024/02/18 10:21:25;;;;;;;4.47;3.77;;;8.40;1.00;;;;;;5058485;28;21014;-66
2024/02/18 10:23:53;;;;;;;8.07;4.67;;;8.40;1.00;;;;;;5059246;28;20469;-68
2024/02/18 10:26:22;;;;;;;7.60;4.17;;;8.40;1.00;;;;;;5058484;28;20762;-68
2024/02/18 10:28:49;;;;;;;9.10;4.67;;;8.30;1.00;;;;;;5058405;28;20454;-67
2024/02/18 10:31:17;;;;;;;5.33;4.00;;;8.30;1.00;;;;;;5058776;28;20549;-67
2024/02/18 10:33:47;;;;;;;9.40;4.97;;;8.30;1.00;;;;;;5059055;28;20548;-68
2024/02/18 10:36:17;;;;;;;4.67;4.00;;;8.30;1.00;;;;;;5057660;28;20502;-67
2024/02/18 10:38:46;;;;;;;5.00;3.70;;;8.30;1.00;;;;;;5057698;28;20494;-68
2024/02/18 10:41:18;;;;;;;10.27;5.03;;;8.40;1.00;;;;;;5057986;28;20465;-68
2024/02/18 10:43:51;;;;;;;6.60;4.20;;;8.40;1.00;;;;;;5063339;28;20820;-67
2024/02/18 10:46:21;;;;;;;9.20;5.07;;;8.40;1.00;;;;;;5063676;28;20867;-67
2024/02/18 10:48:53;;;;;;;8.27;3.67;;;8.40;1.00;;;;;;5060663;28;20942;-67
2024/02/18 10:51:26;;;;;;;10.37;4.40;;;8.40;1.00;;;;;;5064624;28;20458;-66
2024/02/18 10:54:04;;;;;;;5.90;4.23;;;8.40;1.00;;;;;;5061312;28;20490;-67
2024/02/18 10:56:33;;;;;;;6.60;4.73;;;8.40;4.50;;;;;;5061625;28;20462;-67
2024/02/18 10:59:07;;;;;;;4.53;3.77;;;8.30;3.50;;;;;;5063463;28;20519;-63
2024/02/18 11:01:40;;;;;;;5.80;4.63;;;8.30;18.40;;;;;;5059813;28;20462;-67
2024/02/18 11:04:12;;;;;;;6.63;3.80;;;8.30;19.30;;;;;;5060101;28;20511;-67
2024/02/18 11:06:41;;;;;;;7.10;4.50;;;8.30;17.70;;;;;;5062715;28;20919;-67
2024/02/18 11:09:11;;;;;;;7.37;4.40;;;8.40;56.80;;;;;;5059955;28;20458;-67
2024/02/18 11:11:43;;;;;;;8.40;4.60;;;8.40;51.10;;;;;;5060419;28;20462;-67
2024/02/18 11:14:13;;;;;;;7.90;4.13;;;8.40;30.30;;;;;;5047116;27;20451;-67
2024/02/18 11:16:42;;;;;;;6.00;4.80;;;8.30;36.30;;;;;;5041094;28;20532;-66
2024/02/18 11:19:13;;;;;;;5.43;3.80;;;8.30;24.70;;;;;;5045577;28;20501;-65
2024/02/18 11:21:42;;;;;;;6.10;4.17;;;8.40;62.80;;;;;;5045488;28;20876;-66
2024/02/18 11:24:10;;;;;;;8.37;4.03;;;8.40;83.00;;;;;;5092658;27;20454;-67
2024/02/18 11:26:37;;;;;;;7.23;4.53;;;8.40;88.60;;;;;;5168276;27;20454;-66
2024/02/18 11:29:05;;;;;;;8.40;4.03;;;8.40;99.90;;;;;;5168352;27;20453;-67
2024/02/18 11:31:33;;;;;;;7.93;4.47;;;8.40;99.90;;;;;;5165268;27;20510;-67
2024/02/18 11:34:00;;;;;;;6.43;3.90;;;8.40;99.90;;;;;;5165965;27;20457;-67
2024/02/18 11:36:29;;;;;;;10.00;5.00;;;8.40;99.90;;;;;;5165302;27;20454;-67
2024/02/18 11:38:58;;;;;;;8.33;6.40;;;8.40;99.90;;;;;;5163583;27;20930;-67
2024/02/18 11:41:28;;;;;;;7.83;5.80;;;8.40;99.90;;;;;;5163512;27;20454;-67
2024/02/18 11:43:57;;;;;;;7.23;4.83;;;8.40;99.90;;;;;;5101108;27;20479;-67
2024/02/18 11:46:26;;;;;;;6.63;5.73;;;8.30;99.90;;;;;;5060041;28;20470;-68
2024/02/18 11:48:55;;;;;;;7.70;5.27;;;8.40;99.90;;;;;;5057779;28;20455;-69
2024/02/18 11:51:27;;;;;;;7.40;5.80;;;8.40;99.90;;;;;;5056496;28;20458;-72
2024/02/18 11:53:57;;;;;;;7.07;5.17;;;8.40;99.90;;;;;;5054692;28;20963;-66
2024/02/18 11:56:26;;;;;;;8.87;5.50;;;8.40;99.90;;;;;;5055653;28;20799;-66
2024/02/18 11:58:54;;;;;;;5.50;4.60;;;8.40;1.00;;;;;;5054869;28;20815;-66
2024/02/18 12:01:24;;;;;;;6.23;4.33;;;8.50;1.00;;;;;;5055280;28;20868;-66
2024/02/18 12:03:52;;;;;;;6.27;4.27;;;8.50;1.00;;;;;;5055295;28;20466;-67
2024/02/18 12:06:23;;;;;;;8.57;5.80;;;8.50;1.00;;;;;;5053761;28;20465;-67
2024/02/18 12:08:50;;;;;;;9.20;4.00;;;8.50;1.00;;;;;;5053441;28;20463;-66
2024/02/18 12:11:19;;;;;;;6.80;4.50;;;8.50;1.00;;;;;;5054705;28;20459;-66
2024/02/18 12:13:49;;;;;;;9.87;4.97;;;8.60;1.00;;;;;;5047817;28;20914;-65
2024/02/18 12:16:18;;;;;;;7.33;4.43;;;8.70;1.00;;;;;;5047738;28;20462;-65
2024/02/18 12:18:46;;;;;;;9.73;5.20;;;8.60;1.00;;;;;;5050903;28;20585;-66
2024/02/18 12:21:16;;;;;;;8.40;4.63;;;8.60;1.00;;;;;;5053049;28;20531;-65
2024/02/18 12:23:45;;;;;;;6.37;4.10;;;8.70;1.00;;;;;;5052764;28;20553;-65
2024/02/18 12:26:14;;;;;;;7.00;4.80;;;8.70;1.00;;;;;;5053175;28;20467;-65
2024/02/18 12:28:45;;;;;;;7.90;4.80;;;8.80;1.00;;;;;;5053615;28;20463;-66
2024/02/18 12:31:13;;;;;;;6.63;4.63;;;8.80;1.00;;;;;;5053473;28;20459;-67
2024/02/18 12:33:42;;;;;;;6.63;4.30;;;8.90;1.00;;;;;;5052071;28;20572;-67
2024/02/18 12:36:10;;;;;;;10.90;4.70;;;9.20;1.00;;;;;;5052903;28;20897;-66
2024/02/18 12:38:38;;;;;;;7.80;4.40;;;9.20;1.00;;;;;;5053843;28;20783;-67
2024/02/18 12:41:06;;;;;;;7.30;4.17;;;9.20;1.00;;;;;;5048565;28;20460;-67
2024/02/18 12:43:33;;;;;;;6.80;4.30;;;9.20;1.00;;;;;;5040068;28;20541;-67
2024/02/18 12:46:04;;;;;;;7.23;4.60;;;9.10;1.00;;;;;;5047111;28;20462;-66
2024/02/18 12:48:31;;;;;;;10.87;5.03;;;9.00;1.00;;;;;;5033711;28;20463;-64
2024/02/18 12:51:10;;;;;;;8.10;4.77;;;9.00;1.00;;;;;;5044541;28;20465;-65
2024/02/18 12:53:38;;;;;;;6.50;4.67;;;8.90;1.00;;;;;;5040171;28;20573;-67